aviador You're here:

KCBM Decoded Metar

COLOMBUS in MS, USA
Report Time2018-05-27 00:56:00
UTC Time2018-05-27 01:26:42
Flight Rules vfr VFR
Wind180° at 04 kt
W.Decomp.*RWY 13: 2.6 kt HW 3.1 kt RCW
W.Rank180° ranks 3
Current wind is below 180° avg. (6.8)
Visibility9999 m
Phenomena:N/A
Clouds:N/A
Expected CloudBase > 1,200 ft AGL from Temp-Dew spread
CeilingNone
Temp25°C (ISA +10)
Dew Point22°C (83% RH)
QNH1010 hPa
Density Alt1,877 ft
Elevation220 ft
Report Wrong Elevation
Raw Report
KCBM 270056Z AUTO 18004KT 10SM CLR 25/22 A2984 RMK AO2 LTG DSNT
W-NW SLP106 T02490220 $=

Extra information for KCBM:More info

Metar Taf Metar & Taf Last 4 Metars F.Rules Stats Wind Profile Meteogram Temp Stats Airport Information Weather charts Add Link Nearby VenuesMetar ALERT Operation Metar Decoded Social comments

AIRNAV info for KCBM